Time;durP1;ratioP1;P1;durP2;ratioP2;P2;SDS_P1;SDS_P2;PMS_P1;PMS_P2;Temp;Humidity;BMP_temperature;BMP_pressure;BME280_temperature;BME280_humidity;BME280_pressure;Samples;Min_cycle;Max_cycle;Signal;HPM_P1;HPM_P2
2022/08/08 00:02:00;;;;;;;5.97;2.72;;;23.30;41.60;;;;;;4991940;28;20142;-75
2022/08/08 00:04:55;;;;;;;4.35;2.45;;;23.20;41.70;;;;;;4990747;28;20038;-75
2022/08/08 00:07:27;;;;;;;5.40;2.63;;;23.10;42.00;;;;;;4993174;28;20058;-74
2022/08/08 00:10:07;;;;;;;6.28;2.92;;;23.20;41.80;;;;;;4974919;28;20133;-75
2022/08/08 00:12:41;;;;;;;7.43;2.92;;;23.20;41.90;;;;;;4980780;28;20027;-75
2022/08/08 00:15:11;;;;;;;5.60;2.25;;;23.30;42.10;;;;;;4993999;28;20326;-75
2022/08/08 00:17:47;;;;;;;4.57;2.47;;;23.30;42.00;;;;;;4995412;28;20026;-74
2022/08/08 00:20:15;;;;;;;5.70;2.63;;;23.20;41.70;;;;;;4995374;28;20130;-75
2022/08/08 00:22:45;;;;;;;4.55;2.47;;;23.20;41.80;;;;;;4994272;28;20036;-77
2022/08/08 00:25:23;;;;;;;6.53;2.90;;;23.20;42.20;;;;;;4993216;28;20039;-80
2022/08/08 00:27:51;;;;;;;5.25;2.88;;;23.40;42.20;;;;;;4994905;28;20022;-76
2022/08/08 00:30:18;;;;;;;6.25;2.78;;;23.50;42.10;;;;;;4974348;28;20381;-75
2022/08/08 00:32:52;;;;;;;6.90;2.85;;;23.60;42.10;;;;;;4981529;28;20054;-77
2022/08/08 00:35:49;;;;;;;7.38;2.80;;;23.70;42.10;;;;;;4991755;28;20662;-75
2022/08/08 00:38:24;;;;;;;8.00;2.70;;;23.80;42.30;;;;;;4982461;28;20029;-77
2022/08/08 00:41:18;;;;;;;12.85;2.90;;;23.90;42.40;;;;;;5014464;22;20041;-75
2022/08/08 00:44:22;;;;;;;19.52;2.30;;;23.90;42.70;;;;;;5026499;28;20107;-74
2022/08/08 00:47:26;;;;;;;4.45;2.47;;;24.00;43.10;;;;;;5033974;28;20183;-73
2022/08/08 00:50:20;;;;;;;15.30;2.97;;;24.10;43.20;;;;;;5011556;28;20029;-74
2022/08/08 00:52:50;;;;;;;13.05;2.70;;;24.10;43.20;;;;;;5050089;28;20033;-75
2022/08/08 00:55:52;;;;;;;10.20;2.53;;;24.10;43.30;;;;;;5046745;28;20022;-75
2022/08/08 00:58:40;;;;;;;11.25;3.47;;;24.20;43.50;;;;;;5024912;28;20092;-74
2022/08/08 01:01:16;;;;;;;10.95;2.83;;;24.20;43.70;;;;;;5026621;28;20021;-75
2022/08/08 01:03:53;;;;;;;9.45;2.40;;;24.20;43.80;;;;;;5019821;28;20068;-74
2022/08/08 01:06:38;;;;;;;8.15;2.40;;;24.20;43.90;;;;;;5015034;28;20574;-74
2022/08/08 01:09:42;;;;;;;9.23;3.03;;;24.20;44.10;;;;;;5010178;28;20087;-75
2022/08/08 01:12:36;;;;;;;14.07;2.83;;;24.20;44.30;;;;;;5023216;28;20472;-74
2022/08/08 01:15:44;;;;;;;8.27;3.00;;;24.20;44.20;;;;;;5034936;28;20055;-74
2022/08/08 01:18:15;;;;;;;16.50;3.20;;;24.20;44.50;;;;;;5014862;28;20135;-74
2022/08/08 01:21:07;;;;;;;8.90;2.78;;;24.20;44.50;;;;;;5009998;28;20481;-74
2022/08/08 01:23:48;;;;;;;8.50;3.10;;;24.20;44.70;;;;;;5001067;28;20041;-75
2022/08/08 01:26:41;;;;;;;9.88;2.85;;;24.30;44.80;;;;;;5002947;28;20499;-75
2022/08/08 01:29:36;;;;;;;5.57;2.60;;;24.30;44.90;;;;;;5023418;28;20462;-75
2022/08/08 01:32:34;;;;;;;5.40;2.40;;;24.30;45.00;;;;;;5023249;28;20041;-74
2022/08/08 01:35:23;;;;;;;10.27;2.83;;;24.30;45.10;;;;;;5021058;28;20112;-74
2022/08/08 01:38:02;;;;;;;9.13;2.50;;;24.30;45.20;;;;;;5015554;28;20055;-75
2022/08/08 01:40:59;;;;;;;11.02;2.53;;;24.30;45.20;;;;;;5033687;28;20505;-74
2022/08/08 01:43:39;;;;;;;8.23;2.60;;;24.30;45.30;;;;;;5053098;28;20064;-74
2022/08/08 01:46:56;;;;;;;10.48;3.10;;;24.30;45.40;;;;;;5051290;28;20486;-75
2022/08/08 01:49:51;;;;;;;8.32;2.50;;;24.30;45.30;;;;;;5039948;28;20183;-75
2022/08/08 01:52:36;;;;;;;10.85;3.15;;;24.40;45.40;;;;;;5034527;28;20025;-75
2022/08/08 01:55:59;;;;;;;12.40;2.70;;;24.30;45.60;;;;;;5051381;28;20040;-75
2022/08/08 01:58:50;;;;;;;5.75;2.47;;;24.30;45.60;;;;;;5048482;28;20037;-75
2022/08/08 02:01:39;;;;;;;8.90;2.65;;;24.30;45.60;;;;;;5026855;28;20033;-75
2022/08/08 02:04:19;;;;;;;6.05;2.50;;;24.30;45.60;;;;;;5043189;28;20079;-76
2022/08/08 02:07:03;;;;;;;5.65;2.20;;;24.30;46.00;;;;;;5042938;28;20083;-75
2022/08/08 02:10:01;;;;;;;5.55;2.25;;;24.30;46.00;;;;;;5035072;28;20029;-76
2022/08/08 02:12:43;;;;;;;7.63;2.42;;;24.30;46.10;;;;;;5010293;28;20082;-75
2022/08/08 02:15:20;;;;;;;8.23;2.72;;;24.30;46.20;;;;;;5028419;28;20049;-75
2022/08/08 02:18:01;;;;;;;5.70;2.88;;;24.40;46.30;;;;;;5032488;28;20036;-75
2022/08/08 02:20:36;;;;;;;11.50;2.97;;;24.40;46.40;;;;;;5012880;28;20032;-75
2022/08/08 02:23:13;;;;;;;8.93;2.70;;;24.40;47.10;;;;;;5033943;28;20055;-74
2022/08/08 02:26:17;;;;;;;6.00;2.70;;;24.40;46.50;;;;;;5042499;28;20040;-75
2022/08/08 02:28:59;;;;;;;6.22;2.65;;;24.30;46.70;;;;;;5032774;28;20025;-76
2022/08/08 02:31:43;;;;;;;8.85;2.65;;;24.30;46.70;;;;;;5028450;28;20025;-76
2022/08/08 02:34:33;;;;;;;5.53;2.72;;;24.30;46.80;;;;;;5041753;28;20053;-75
2022/08/08 02:37:13;;;;;;;6.20;2.60;;;24.30;46.90;;;;;;5017484;28;20037;-76
2022/08/08 02:39:53;;;;;;;6.47;2.35;;;24.30;47.00;;;;;;5043684;28;20112;-75
2022/08/08 02:42:37;;;;;;;5.18;2.45;;;24.40;47.00;;;;;;5028669;28;20072;-75
2022/08/08 02:45:27;;;;;;;3.90;2.10;;;24.30;47.10;;;;;;5016647;28;20041;-75
2022/08/08 02:48:31;;;;;;;7.40;2.28;;;24.40;47.10;;;;;;5033235;28;20469;-75
2022/08/08 02:51:18;;;;;;;10.38;2.35;;;24.30;47.10;;;;;;5033346;28;20028;-74
2022/08/08 02:54:24;;;;;;;6.28;2.25;;;24.40;47.20;;;;;;5051895;28;20025;-74
2022/08/08 02:57:05;;;;;;;8.43;2.67;;;24.40;47.30;;;;;;5047945;28;20029;-75
2022/08/08 03:00:00;;;;;;;6.75;2.25;;;24.40;47.30;;;;;;5034176;28;20385;-75
2022/08/08 03:02:54;;;;;;;6.15;2.30;;;24.30;47.30;;;;;;4966918;28;20061;-75
2022/08/08 03:05:41;;;;;;;10.75;2.80;;;24.40;47.50;;;;;;5020657;28;20021;-75
2022/08/08 03:08:32;;;;;;;5.60;2.20;;;24.30;47.40;;;;;;5050902;28;20401;-75
2022/08/08 03:11:37;;;;;;;8.75;2.25;;;24.40;47.50;;;;;;5017691;28;20032;-75
2022/08/08 03:14:27;;;;;;;7.90;2.35;;;24.40;47.50;;;;;;5032992;28;20104;-75
2022/08/08 03:17:26;;;;;;;4.93;2.40;;;24.40;47.60;;;;;;5023860;28;20493;-75
2022/08/08 03:20:07;;;;;;;7.25;2.80;;;24.40;47.50;;;;;;5016504;28;20040;-75
2022/08/08 03:22:44;;;;;;;9.27;3.20;;;24.40;47.50;;;;;;5016496;28;20449;-75
2022/08/08 03:25:14;;;;;;;4.25;2.10;;;24.40;47.60;;;;;;5024980;28;20029;-75
2022/08/08 03:27:51;;;;;;;8.38;2.45;;;24.40;47.60;;;;;;5032916;28;20112;-75
2022/08/08 03:30:21;;;;;;;7.07;2.70;;;24.40;47.60;;;;;;5028924;28;20025;-75
2022/08/08 03:35:38;;;;;;;4.50;2.17;;;24.40;47.70;;;;;;5003771;28;19979;-74
2022/08/08 03:38:05;;;;;;;8.25;2.65;;;24.40;47.70;;;;;;5049307;28;20036;-74
2022/08/08 03:40:31;;;;;;;7.68;2.85;;;24.50;47.80;;;;;;5053452;28;20485;-74
2022/08/08 03:43:01;;;;;;;6.05;2.83;;;24.40;47.80;;;;;;5033103;28;20036;-75
2022/08/08 03:45:29;;;;;;;5.32;2.70;;;24.40;48.00;;;;;;5031121;28;20029;-75
2022/08/08 03:48:07;;;;;;;11.55;2.70;;;24.50;47.90;;;;;;5049894;28;20060;-75
2022/08/08 03:50:47;;;;;;;8.45;2.63;;;24.40;47.90;;;;;;5055176;28;20083;-75
2022/08/08 03:53:18;;;;;;;6.75;2.63;;;24.40;47.90;;;;;;5049618;28;20088;-75
2022/08/08 03:55:48;;;;;;;7.97;2.47;;;24.50;48.10;;;;;;5045061;28;20029;-76
2022/08/08 03:58:19;;;;;;;;;;;24.50;48.20;;;;;;5045160;28;20534;-75
2022/08/08 04:00:51;;;;;;;6.07;2.35;;;24.40;48.10;;;;;;5036174;28;20390;-75
2022/08/08 04:03:19;;;;;;;10.20;3.20;;;24.40;48.30;;;;;;5053025;28;20101;-75
2022/08/08 04:05:45;;;;;;;8.02;2.60;;;24.40;48.30;;;;;;5051946;28;20597;-75
2022/08/08 04:08:21;;;;;;;3.97;2.38;;;24.50;48.30;;;;;;5037300;28;20020;-75
2022/08/08 04:10:51;;;;;;;4.07;2.30;;;24.40;48.40;;;;;;5051930;28;20017;-75
2022/08/08 04:13:21;;;;;;;11.05;2.42;;;24.40;48.90;;;;;;5053148;28;20488;-76
2022/08/08 04:15:57;;;;;;;7.80;2.60;;;24.40;48.40;;;;;;5033849;28;20059;-76
2022/08/08 04:18:23;;;;;;;8.13;2.60;;;24.40;48.40;;;;;;5033510;28;20021;-76
2022/08/08 04:20:50;;;;;;;7.45;3.00;;;24.40;48.60;;;;;;5037855;28;20025;-76
2022/08/08 04:23:16;;;;;;;4.40;2.60;;;24.40;48.50;;;;;;5017239;28;20025;-75
2022/08/08 04:25:42;;;;;;;8.95;3.05;;;24.40;48.50;;;;;;5018255;28;20109;-75
2022/08/08 04:28:09;;;;;;;7.97;3.00;;;24.40;48.60;;;;;;5028539;28;20029;-75
2022/08/08 04:30:36;;;;;;;10.77;3.10;;;24.40;48.70;;;;;;5051930;28;20029;-75
2022/08/08 04:33:02;;;;;;;5.90;2.47;;;24.40;48.80;;;;;;5027321;28;20043;-75
2022/08/08 04:35:32;;;;;;;10.70;2.80;;;24.40;48.70;;;;;;5035266;28;20029;-75
2022/08/08 04:37:58;;;;;;;6.93;2.90;;;24.40;48.80;;;;;;5036605;28;20056;-75
2022/08/08 04:40:29;;;;;;;8.60;2.85;;;24.40;48.70;;;;;;5027143;28;20025;-76
2022/08/08 04:42:56;;;;;;;7.43;3.10;;;24.40;48.70;;;;;;5007869;28;20421;-75
2022/08/08 04:45:25;;;;;;;8.10;2.80;;;24.40;48.80;;;;;;5037142;28;20061;-75
2022/08/08 04:47:53;;;;;;;8.27;2.92;;;24.40;48.80;;;;;;5019140;28;20025;-75
2022/08/08 04:50:20;;;;;;;5.88;2.70;;;24.40;48.80;;;;;;5052088;28;20192;-76
2022/08/08 04:52:46;;;;;;;6.80;3.10;;;24.40;48.80;;;;;;5026317;28;20425;-75
2022/08/08 04:55:16;;;;;;;9.05;2.60;;;24.40;48.80;;;;;;5034367;28;20021;-75
2022/08/08 04:57:42;;;;;;;9.20;3.15;;;24.40;48.90;;;;;;5028002;28;20091;-76
2022/08/08 05:00:09;;;;;;;10.68;2.85;;;24.40;48.90;;;;;;5015706;28;20033;-75
2022/08/08 05:02:35;;;;;;;7.00;3.30;;;24.40;48.90;;;;;;5004472;28;20036;-75
2022/08/08 05:05:02;;;;;;;6.30;3.20;;;24.40;49.00;;;;;;5041020;28;20021;-75
2022/08/08 05:07:31;;;;;;;8.43;2.70;;;24.40;49.00;;;;;;5025214;28;20060;-75
2022/08/08 05:09:57;;;;;;;9.10;2.85;;;24.40;49.10;;;;;;5016342;28;20042;-75
2022/08/08 05:12:23;;;;;;;12.10;3.00;;;24.40;49.00;;;;;;5012830;28;20029;-75
2022/08/08 05:14:50;;;;;;;8.30;2.88;;;24.50;49.00;;;;;;5010718;28;20125;-75
2022/08/08 05:17:16;;;;;;;11.35;2.88;;;24.50;49.00;;;;;;5018506;28;20509;-75
2022/08/08 05:19:42;;;;;;;5.38;2.45;;;24.50;49.10;;;;;;5047483;28;20028;-75
2022/08/08 05:22:10;;;;;;;6.45;3.45;;;24.50;49.10;;;;;;5019210;28;20033;-75
2022/08/08 05:24:40;;;;;;;6.25;2.67;;;24.50;49.00;;;;;;5031961;28;20111;-75
2022/08/08 05:27:07;;;;;;;6.57;2.55;;;24.50;49.30;;;;;;5043121;28;20079;-75
2022/08/08 05:29:36;;;;;;;6.07;2.45;;;24.50;49.30;;;;;;5027921;28;20026;-75
2022/08/08 05:32:04;;;;;;;10.05;3.05;;;24.50;49.20;;;;;;5016324;28;20039;-75
2022/08/08 05:34:34;;;;;;;5.75;2.65;;;24.50;49.20;;;;;;5034718;28;20330;-75
2022/08/08 05:37:02;;;;;;;6.03;3.00;;;24.50;49.20;;;;;;5033890;28;20591;-75
2022/08/08 05:39:28;;;;;;;7.22;2.58;;;24.50;49.40;;;;;;5021497;28;20076;-75
2022/08/08 05:41:58;;;;;;;7.30;3.25;;;24.50;49.30;;;;;;5032421;28;20119;-75
2022/08/08 05:44:29;;;;;;;7.85;3.17;;;24.50;49.50;;;;;;5021537;28;20060;-75
2022/08/08 05:46:57;;;;;;;9.13;2.97;;;24.40;49.50;;;;;;5033388;28;20022;-75
2022/08/08 05:49:24;;;;;;;6.97;2.95;;;24.50;49.40;;;;;;5017858;28;20037;-75
2022/08/08 05:51:51;;;;;;;7.25;3.00;;;24.50;49.50;;;;;;5016782;28;20389;-76
2022/08/08 05:54:22;;;;;;;7.60;2.60;;;24.40;49.40;;;;;;5022866;28;20388;-75
2022/08/08 05:56:51;;;;;;;6.85;2.55;;;24.40;49.50;;;;;;5031485;28;20025;-75
2022/08/08 05:59:24;;;;;;;5.30;2.67;;;24.40;49.50;;;;;;5045534;28;20017;-75
2022/08/08 06:01:58;;;;;;;5.40;2.65;;;24.50;49.70;;;;;;5033347;28;20544;-75
2022/08/08 06:04:28;;;;;;;5.13;2.33;;;24.40;50.10;;;;;;5033110;28;20032;-74
2022/08/08 06:07:02;;;;;;;10.43;2.70;;;24.50;49.70;;;;;;5024921;28;20070;-74
2022/08/08 06:09:35;;;;;;;;;;;24.50;50.20;;;;;;5050804;28;20021;-74
2022/08/08 06:12:03;;;;;;;7.40;2.65;;;24.50;49.70;;;;;;5009967;28;19920;-76
2022/08/08 06:14:29;;;;;;;4.97;2.38;;;24.50;49.80;;;;;;5027968;28;20032;-74
2022/08/08 06:17:00;;;;;;;7.40;2.80;;;24.50;49.80;;;;;;5039507;28;20033;-74
2022/08/08 06:19:49;;;;;;;7.90;2.78;;;24.50;49.70;;;;;;5051332;28;20033;-75
2022/08/08 06:22:15;;;;;;;6.25;3.00;;;24.50;49.80;;;;;;5027307;28;20409;-75
2022/08/08 06:24:46;;;;;;;10.77;2.88;;;24.50;49.90;;;;;;5025505;28;20044;-75
2022/08/08 06:27:15;;;;;;;10.00;2.97;;;24.50;49.90;;;;;;5040838;28;20025;-75
2022/08/08 06:30:08;;;;;;;13.10;2.80;;;24.50;49.90;;;;;;5015971;28;20029;-75
2022/08/08 06:32:49;;;;;;;7.68;2.40;;;24.50;49.90;;;;;;5025489;28;20106;-74
2022/08/08 06:35:16;;;;;;;5.30;2.28;;;24.50;50.00;;;;;;5027277;28;20443;-75
2022/08/08 06:37:59;;;;;;;8.65;2.70;;;24.50;50.00;;;;;;5034253;28;20044;-75
2022/08/08 06:40:31;;;;;;;6.35;2.78;;;24.50;50.00;;;;;;5018739;28;20025;-74
2022/08/08 06:43:10;;;;;;;8.60;2.67;;;24.50;50.10;;;;;;5035938;23;20064;-72
2022/08/08 06:45:56;;;;;;;5.45;2.60;;;24.50;50.10;;;;;;5027593;28;20529;-72
2022/08/08 06:48:22;;;;;;;7.40;2.60;;;24.50;50.00;;;;;;5021919;28;20482;-72
2022/08/08 06:50:49;;;;;;;10.90;3.13;;;24.50;50.10;;;;;;5020529;28;20032;-72
2022/08/08 06:53:17;;;;;;;5.53;2.60;;;24.50;50.20;;;;;;4986338;28;20466;-72
2022/08/08 06:55:46;;;;;;;;;;;24.50;50.30;;;;;;5006619;28;20042;-72
2022/08/08 06:58:12;;;;;;;8.63;2.47;;;24.50;50.20;;;;;;5011337;28;20096;-73
2022/08/08 07:00:39;;;;;;;7.68;3.05;;;24.50;50.20;;;;;;5026123;28;20029;-72
2022/08/08 07:03:11;;;;;;;3.88;2.20;;;24.50;50.20;;;;;;5018728;28;20029;-73
2022/08/08 07:05:40;;;;;;;7.13;2.58;;;24.60;50.30;;;;;;5025213;28;20077;-72
2022/08/08 07:08:26;;;;;;;8.60;2.80;;;24.50;50.30;;;;;;5010293;28;20022;-72
2022/08/08 07:10:58;;;;;;;9.90;2.55;;;24.50;50.20;;;;;;5002056;28;20034;-73
2022/08/08 07:13:32;;;;;;;9.20;3.05;;;24.60;50.30;;;;;;5012878;28;20046;-73
2022/08/08 07:16:27;;;;;;;7.75;2.70;;;24.60;50.40;;;;;;5007150;28;20101;-72
2022/08/08 07:18:59;;;;;;;6.68;2.42;;;24.60;50.40;;;;;;5017673;28;20042;-72
2022/08/08 07:21:41;;;;;;;7.15;2.70;;;24.60;50.60;;;;;;5017848;28;20052;-72
2022/08/08 07:24:12;;;;;;;4.90;2.40;;;24.60;50.50;;;;;;5010693;28;20487;-71
2022/08/08 07:26:52;;;;;;;4.15;2.00;;;24.60;50.60;;;;;;5008789;28;20406;-71
2022/08/08 07:29:20;;;;;;;6.85;2.53;;;24.60;51.10;;;;;;5018219;28;20382;-71
2022/08/08 07:31:46;;;;;;;5.63;2.70;;;24.60;50.70;;;;;;5023793;28;20026;-71
2022/08/08 07:34:15;;;;;;;5.03;2.40;;;24.60;50.80;;;;;;4998234;28;20049;-72
2022/08/08 07:36:42;;;;;;;7.18;2.70;;;24.60;50.80;;;;;;5001114;28;20034;-72
2022/08/08 07:39:09;;;;;;;6.88;2.63;;;24.60;51.10;;;;;;4999363;28;20038;-72
2022/08/08 07:41:39;;;;;;;10.20;2.50;;;24.60;51.30;;;;;;5016730;28;20501;-72
2022/08/08 07:44:07;;;;;;;6.25;2.33;;;24.60;51.40;;;;;;5001444;28;20029;-72
2022/08/08 07:46:33;;;;;;;5.15;2.30;;;24.60;51.20;;;;;;5024999;28;20030;-72
2022/08/08 07:49:04;;;;;;;7.93;3.20;;;24.60;51.40;;;;;;5016036;28;20494;-72
2022/08/08 07:51:33;;;;;;;10.70;2.65;;;24.60;51.60;;;;;;5004615;28;20209;-71
2022/08/08 07:54:17;;;;;;;8.70;2.70;;;24.70;51.30;;;;;;5001054;28;20033;-71
2022/08/08 07:56:54;;;;;;;9.07;2.30;;;24.70;51.70;;;;;;4997683;28;20037;-73
2022/08/08 07:59:24;;;;;;;8.23;2.67;;;24.60;51.60;;;;;;5014631;28;20508;-73
2022/08/08 08:01:56;;;;;;;8.57;2.42;;;24.70;51.70;;;;;;5013303;28;20030;-72
2022/08/08 08:04:28;;;;;;;3.85;2.15;;;24.70;51.60;;;;;;5020613;28;20038;-73
2022/08/08 08:06:59;;;;;;;9.00;2.55;;;24.70;51.60;;;;;;5009150;28;20022;-72
2022/08/08 08:09:27;;;;;;;7.70;2.53;;;24.70;51.60;;;;;;5015067;28;20041;-73
2022/08/08 08:11:55;;;;;;;9.10;2.72;;;24.70;51.80;;;;;;5018506;28;20030;-72
2022/08/08 08:14:30;;;;;;;7.63;2.25;;;24.70;51.90;;;;;;5008522;28;20367;-72
2022/08/08 08:16:58;;;;;;;6.15;2.35;;;24.70;51.80;;;;;;5016858;28;20088;-73
2022/08/08 08:19:31;;;;;;;6.25;2.30;;;24.70;52.00;;;;;;5017515;28;20053;-71
2022/08/08 08:21:58;;;;;;;6.72;2.15;;;24.70;51.90;;;;;;5008652;28;20466;-71
2022/08/08 08:24:44;;;;;;;10.13;2.58;;;24.70;51.70;;;;;;5007372;28;20038;-71
2022/08/08 08:27:10;;;;;;;7.72;2.58;;;24.70;51.80;;;;;;5006235;28;20014;-71
2022/08/08 08:29:39;;;;;;;5.70;2.25;;;24.70;52.00;;;;;;5017559;28;20037;-72
2022/08/08 08:32:06;;;;;;;8.05;2.83;;;24.70;52.00;;;;;;5025798;28;20030;-73
2022/08/08 08:34:36;;;;;;;5.82;2.58;;;24.80;51.90;;;;;;5021028;28;20030;-73
2022/08/08 08:37:04;;;;;;;14.90;3.25;;;24.80;52.40;;;;;;4987405;28;20030;-72
2022/08/08 08:39:31;;;;;;;6.18;2.22;;;24.70;52.40;;;;;;5021763;28;20024;-73
2022/08/08 08:42:00;;;;;;;10.38;2.22;;;24.80;52.60;;;;;;5027986;28;20049;-73
2022/08/08 08:44:27;;;;;;;12.07;2.40;;;24.80;52.90;;;;;;5023014;28;20018;-73
2022/08/08 08:46:54;;;;;;;9.00;2.33;;;24.80;52.40;;;;;;5008116;28;20026;-72
2022/08/08 08:49:20;;;;;;;8.52;2.35;;;24.80;53.20;;;;;;5022349;28;20026;-73
2022/08/08 08:51:48;;;;;;;12.18;2.72;;;24.80;53.20;;;;;;5029553;28;20037;-72
2022/08/08 08:54:16;;;;;;;12.75;2.60;;;24.80;53.00;;;;;;5006652;28;20019;-72
2022/08/08 08:56:42;;;;;;;9.05;2.80;;;24.80;52.90;;;;;;5005488;28;20037;-74
2022/08/08 08:59:11;;;;;;;10.82;2.75;;;24.80;53.10;;;;;;5021397;28;20030;-73
2022/08/08 09:01:42;;;;;;;13.30;3.03;;;24.80;52.00;;;;;;5029217;28;20026;-73
2022/08/08 09:04:20;;;;;;;12.38;2.30;;;24.80;49.20;;;;;;4995092;28;20418;-73
2022/08/08 09:06:49;;;;;;;6.47;2.53;;;24.80;44.60;;;;;;5009023;28;20030;-73
2022/08/08 09:09:19;;;;;;;12.35;2.53;;;24.80;45.30;;;;;;5009572;28;20100;-74
2022/08/08 09:11:46;;;;;;;10.10;2.40;;;24.80;46.00;;;;;;5003056;28;20040;-73
2022/08/08 09:14:14;;;;;;;7.70;2.40;;;24.90;43.70;;;;;;4995094;28;20457;-74
2022/08/08 09:16:43;;;;;;;6.43;2.25;;;25.00;41.60;;;;;;5010711;28;20034;-73
2022/08/08 09:19:10;;;;;;;7.93;2.40;;;25.10;40.60;;;;;;5017893;28;20034;-74
2022/08/08 09:21:37;;;;;;;7.97;3.75;;;25.10;43.20;;;;;;5023874;28;20415;-74
2022/08/08 09:24:04;;;;;;;10.30;4.25;;;25.10;41.70;;;;;;5020737;28;20052;-74
2022/08/08 09:26:44;;;;;;;15.10;6.72;;;25.00;42.70;;;;;;5014081;28;20482;-74
2022/08/08 09:29:20;;;;;;;20.08;8.88;;;24.80;42.30;;;;;;5020615;28;20056;-74
2022/08/08 09:32:04;;;;;;;19.08;8.82;;;24.80;42.00;;;;;;5004869;28;20433;-75
2022/08/08 09:34:38;;;;;;;;;;;24.80;40.70;;;;;;5012885;28;20034;-73
2022/08/08 09:37:13;;;;;;;7.20;3.75;;;25.00;40.20;;;;;;5003966;28;20012;-73
2022/08/08 09:40:04;;;;;;;10.63;3.50;;;25.00;39.30;;;;;;5008935;28;20092;-74
2022/08/08 09:42:37;;;;;;;8.23;3.25;;;25.10;39.80;;;;;;5001594;28;20038;-74
2022/08/08 09:45:10;;;;;;;7.03;3.05;;;25.00;40.40;;;;;;5019407;28;20033;-75
2022/08/08 09:47:39;;;;;;;6.10;2.50;;;25.00;39.90;;;;;;5021788;28;20045;-74
2022/08/08 09:50:10;;;;;;;6.55;2.55;;;24.90;40.30;;;;;;5028411;28;20398;-74
2022/08/08 09:52:44;;;;;;;8.73;2.70;;;24.90;39.90;;;;;;5025842;28;20022;-73
2022/08/08 09:55:10;;;;;;;8.05;2.60;;;24.80;39.20;;;;;;5008029;28;20536;-74
2022/08/08 09:57:40;;;;;;;4.32;2.15;;;24.80;40.60;;;;;;5013126;28;20029;-73
2022/08/08 10:00:09;;;;;;;3.97;2.20;;;24.70;38.90;;;;;;5002316;28;20030;-72
2022/08/08 10:02:51;;;;;;;3.65;2.03;;;24.70;40.70;;;;;;5010518;28;20042;-75
2022/08/08 10:05:19;;;;;;;5.43;1.88;;;24.60;38.80;;;;;;5007411;28;20413;-75
2022/08/08 10:07:54;;;;;;;3.45;2.03;;;24.50;37.70;;;;;;5009716;28;20022;-74
2022/08/08 10:10:29;;;;;;;6.22;2.00;;;24.50;38.60;;;;;;4993269;28;20030;-74
2022/08/08 10:12:55;;;;;;;5.85;2.08;;;24.40;37.90;;;;;;5002010;28;20034;-74
2022/08/08 10:15:23;;;;;;;6.03;2.22;;;24.50;40.50;;;;;;5007400;28;20034;-75
2022/08/08 10:17:51;;;;;;;3.00;1.90;;;24.60;40.90;;;;;;5012614;28;20475;-74
2022/08/08 10:20:18;;;;;;;5.20;2.10;;;24.70;39.90;;;;;;5009180;28;20677;-74
2022/08/08 10:23:04;;;;;;;3.25;2.00;;;24.80;39.00;;;;;;5011089;28;20034;-73
2022/08/08 10:25:31;;;;;;;6.63;2.33;;;24.90;38.60;;;;;;5003342;28;20042;-73
2022/08/08 10:28:07;;;;;;;10.38;2.63;;;25.10;38.00;;;;;;5026270;28;20458;-76
2022/08/08 10:30:33;;;;;;;9.27;2.72;;;25.20;37.00;;;;;;5003842;28;20057;-76
2022/08/08 10:33:00;;;;;;;7.22;2.35;;;25.30;36.90;;;;;;5027448;28;20458;-76
2022/08/08 10:35:28;;;;;;;5.45;2.60;;;25.30;36.60;;;;;;5003454;28;20071;-75
2022/08/08 10:38:02;;;;;;;7.25;2.20;;;25.40;36.40;;;;;;5011937;28;20065;-76
2022/08/08 10:40:32;;;;;;;5.45;1.90;;;25.50;36.30;;;;;;5026259;28;20033;-76
2022/08/08 10:43:02;;;;;;;6.00;2.25;;;25.30;37.30;;;;;;5009627;28;20072;-75
2022/08/08 10:45:29;;;;;;;3.13;1.45;;;25.30;37.00;;;;;;4993227;28;20038;-75
2022/08/08 10:47:58;;;;;;;4.45;2.00;;;25.30;36.80;;;;;;4992285;28;20031;-76
2022/08/08 10:50:34;;;;;;;4.35;2.20;;;25.20;37.40;;;;;;5009065;28;20025;-76
2022/08/08 10:53:05;;;;;;;5.75;2.05;;;25.20;37.70;;;;;;5009292;28;20034;-76
2022/08/08 10:55:32;;;;;;;5.22;2.28;;;25.10;38.10;;;;;;5011267;28;20037;-76
2022/08/08 10:58:07;;;;;;;7.75;2.60;;;25.10;38.30;;;;;;5027415;28;20404;-75
2022/08/08 11:00:33;;;;;;;5.65;2.58;;;25.20;38.10;;;;;;5011088;28;20423;-74
2022/08/08 11:03:11;;;;;;;3.72;2.40;;;25.20;38.70;;;;;;5011758;28;20034;-75
2022/08/08 11:05:50;;;;;;;7.88;2.28;;;25.10;38.30;;;;;;5010017;28;20042;-75
2022/08/08 11:08:27;;;;;;;5.30;2.00;;;25.00;37.90;;;;;;4994732;28;20171;-75
2022/08/08 11:11:11;;;;;;;4.18;2.10;;;24.90;37.50;;;;;;5027067;28;20091;-76
2022/08/08 11:13:39;;;;;;;3.67;2.20;;;25.00;37.70;;;;;;5012083;28;20434;-75
2022/08/08 11:16:06;;;;;;;6.45;2.50;;;24.80;37.30;;;;;;5010996;28;20113;-76
2022/08/08 11:18:35;;;;;;;8.60;2.47;;;24.80;37.90;;;;;;5003618;28;20037;-74
2022/08/08 11:21:03;;;;;;;5.93;2.35;;;24.80;37.20;;;;;;5025907;28;20034;-74
2022/08/08 11:23:33;;;;;;;6.95;2.85;;;24.80;37.40;;;;;;5007506;28;20040;-75
2022/08/08 11:26:04;;;;;;;6.93;3.13;;;24.70;37.70;;;;;;5010845;28;20448;-74
2022/08/08 11:28:33;;;;;;;7.82;2.92;;;24.70;38.20;;;;;;5010936;28;20394;-75
2022/08/08 11:31:01;;;;;;;5.63;3.00;;;24.80;38.60;;;;;;5010557;28;20375;-75
2022/08/08 11:33:29;;;;;;;6.53;2.72;;;24.80;38.60;;;;;;5011631;28;20041;-75
2022/08/08 11:35:56;;;;;;;5.30;2.42;;;25.00;38.20;;;;;;5009765;28;20394;-77
2022/08/08 11:38:23;;;;;;;4.85;2.25;;;25.00;38.00;;;;;;5011666;28;20029;-74
2022/08/08 11:40:50;;;;;;;6.60;2.17;;;25.20;37.20;;;;;;5036426;28;20057;-75
2022/08/08 11:43:17;;;;;;;9.63;2.65;;;25.20;36.60;;;;;;5030971;28;20036;-73
2022/08/08 11:45:48;;;;;;;4.95;2.25;;;25.10;37.10;;;;;;5016104;28;20613;-74
2022/08/08 11:48:15;;;;;;;4.95;2.20;;;25.10;37.60;;;;;;5026738;28;20026;-75
2022/08/08 11:50:43;;;;;;;4.95;2.25;;;25.00;37.40;;;;;;5010538;28;20030;-74
2022/08/08 11:53:09;;;;;;;7.35;2.70;;;24.90;38.00;;;;;;5010156;28;20105;-74
2022/08/08 11:55:47;;;;;;;7.43;2.28;;;25.00;38.70;;;;;;5008998;28;20390;-76
2022/08/08 12:01:08;;;;;;;4.43;2.30;;;24.80;36.90;;;;;;5141729;23;20047;-75
2022/08/08 12:03:35;;;;;;;15.32;8.98;;;24.70;37.50;;;;;;4943282;29;20479;-75
2022/08/08 12:06:18;;;;;;;14.23;6.53;;;24.80;38.20;;;;;;4961158;28;20034;-72
2022/08/08 12:08:45;;;;;;;9.30;4.07;;;24.80;38.40;;;;;;4964116;28;20033;-75
2022/08/08 12:11:13;;;;;;;9.20;4.45;;;24.80;38.10;;;;;;4966922;28;20027;-74
2022/08/08 12:13:40;;;;;;;7.47;3.28;;;24.90;38.90;;;;;;4983097;23;20470;-75
2022/08/08 12:16:15;;;;;;;6.70;3.30;;;24.90;38.40;;;;;;4958385;28;20054;-75
2022/08/08 12:18:54;;;;;;;9.38;3.47;;;25.00;38.50;;;;;;4969308;28;20026;-74
2022/08/08 12:21:32;;;;;;;10.77;3.30;;;25.00;38.10;;;;;;4976760;28;20027;-75
2022/08/08 12:24:08;;;;;;;13.23;3.42;;;25.00;38.60;;;;;;4975236;28;20118;-76
2022/08/08 12:26:42;;;;;;;9.68;3.00;;;24.90;38.70;;;;;;4957520;28;20490;-75
2022/08/08 12:29:34;;;;;;;7.63;2.47;;;25.00;38.20;;;;;;4942667;28;20038;-76
2022/08/08 12:32:08;;;;;;;9.98;2.70;;;25.00;37.60;;;;;;4942354;28;20431;-75
2022/08/08 12:34:39;;;;;;;7.85;2.65;;;25.00;37.50;;;;;;4958759;28;20027;-75
2022/08/08 12:37:08;;;;;;;5.28;2.40;;;25.00;37.80;;;;;;4955472;29;20483;-77
2022/08/08 12:39:34;;;;;;;6.53;2.53;;;24.90;36.80;;;;;;4924348;29;20031;-75
2022/08/08 12:42:00;;;;;;;7.28;2.60;;;24.90;37.90;;;;;;4955071;28;20039;-75
2022/08/08 12:44:28;;;;;;;3.83;2.08;;;24.90;38.30;;;;;;4938978;29;20042;-75
2022/08/08 12:46:58;;;;;;;5.53;2.35;;;25.00;37.50;;;;;;4922251;29;20035;-75
2022/08/08 12:49:29;;;;;;;5.53;2.50;;;25.10;37.30;;;;;;4939019;29;20391;-76
2022/08/08 12:51:56;;;;;;;5.47;2.10;;;25.00;37.30;;;;;;4939022;29;20078;-75
2022/08/08 12:54:24;;;;;;;4.82;2.25;;;25.10;36.80;;;;;;4956468;28;20024;-75
2022/08/08 12:56:51;;;;;;;6.82;2.13;;;25.10;36.30;;;;;;4938017;29;20062;-75
2022/08/08 12:59:18;;;;;;;5.18;2.50;;;25.20;36.30;;;;;;4968009;28;20041;-76
2022/08/08 13:01:53;;;;;;;9.32;2.22;;;25.20;36.50;;;;;;4981777;28;20039;-76
2022/08/08 13:04:21;;;;;;;4.80;2.58;;;25.20;36.70;;;;;;4970133;28;20069;-76
2022/08/08 13:07:01;;;;;;;5.30;2.70;;;25.10;37.30;;;;;;4966232;28;20375;-75
2022/08/08 13:09:38;;;;;;;4.25;2.55;;;25.00;37.10;;;;;;4959959;28;20493;-73
2022/08/08 13:12:18;;;;;;;3.88;2.08;;;24.90;36.80;;;;;;4970501;28;20490;-75
2022/08/08 13:14:48;;;;;;;;;;;24.80;37.00;;;;;;4956251;28;20072;-74
2022/08/08 13:17:15;;;;;;;5.43;2.20;;;24.80;36.40;;;;;;4979597;28;19960;-74
2022/08/08 13:19:45;;;;;;;5.57;2.45;;;24.80;37.90;;;;;;4991706;28;20030;-75
2022/08/08 13:22:15;;;;;;;4.13;2.13;;;24.80;37.50;;;;;;4988563;28;20026;-74
2022/08/08 13:24:41;;;;;;;4.25;2.20;;;24.70;36.50;;;;;;4973502;28;20502;-75
2022/08/08 13:27:12;;;;;;;4.57;2.20;;;24.70;35.70;;;;;;4956889;28;20035;-75
2022/08/08 13:30:03;;;;;;;3.80;2.38;;;24.60;35.70;;;;;;4921668;29;20498;-75